createdAt,value
2023-08-18T00:01:41.970Z,5.43
2023-08-18T00:04:08.321Z,8.67
2023-08-18T00:06:34.635Z,6.90
2023-08-18T00:09:00.986Z,6.40
2023-08-18T00:11:27.270Z,5.07
2023-08-18T00:13:53.523Z,8.97
2023-08-18T00:16:19.877Z,6.20
2023-08-18T00:18:46.215Z,5.50
2023-08-18T00:21:12.575Z,6.07
2023-08-18T00:23:38.910Z,7.40
2023-08-18T00:26:06.915Z,5.93
2023-08-18T00:28:33.195Z,6.87
2023-08-18T00:30:59.491Z,6.53
2023-08-18T00:33:25.804Z,5.73
2023-08-18T00:35:52.082Z,6.50
2023-08-18T00:38:18.383Z,9.10
2023-08-18T00:40:44.645Z,6.87
2023-08-18T00:43:11.368Z,6.47
2023-08-18T00:45:37.702Z,7.07
2023-08-18T00:48:04.839Z,7.97
2023-08-18T00:50:31.651Z,7.80
2023-08-18T00:52:58.870Z,5.13
2023-08-18T00:55:26.885Z,5.70
2023-08-18T00:57:55.171Z,7.53
2023-08-18T01:00:24.377Z,7.70
2023-08-18T01:02:51.412Z,9.37
2023-08-18T01:05:17.828Z,7.63
2023-08-18T01:07:44.163Z,10.37
2023-08-18T01:10:10.806Z,10.47
2023-08-18T01:12:55.622Z,7.80
2023-08-18T01:15:21.928Z,9.63
2023-08-18T01:17:50.325Z,6.53
2023-08-18T01:20:17.772Z,7.40
2023-08-18T01:22:45.555Z,11.17
2023-08-18T01:25:11.896Z,8.97
2023-08-18T01:27:38.179Z,7.80
2023-08-18T01:30:04.767Z,8.80
2023-08-18T01:32:34.598Z,8.87
2023-08-18T01:35:01.343Z,8.70
2023-08-18T01:37:30.712Z,8.77
2023-08-18T01:39:58.041Z,7.83
2023-08-18T01:42:24.427Z,10.00
2023-08-18T01:44:50.731Z,7.70
2023-08-18T01:47:17.177Z,6.70
2023-08-18T01:49:43.475Z,10.10
2023-08-18T01:52:10.464Z,8.37
2023-08-18T01:54:36.734Z,7.93
2023-08-18T01:57:03.629Z,8.33
2023-08-18T01:59:29.924Z,9.97
2023-08-18T02:01:56.516Z,9.40
2023-08-18T02:04:22.810Z,10.70
2023-08-18T02:06:49.141Z,8.43
2023-08-18T02:09:15.764Z,11.27
2023-08-18T02:11:42.105Z,8.70
2023-08-18T02:14:08.559Z,9.87
2023-08-18T02:16:34.892Z,11.50
2023-08-18T02:19:01.253Z,10.77
2023-08-18T02:21:31.631Z,8.33
2023-08-18T02:23:57.906Z,8.30
2023-08-18T02:26:24.203Z,11.03
2023-08-18T02:28:50.483Z,9.37
2023-08-18T02:31:17.170Z,10.60
2023-08-18T02:33:43.524Z,11.13
2023-08-18T02:36:12.680Z,9.83
2023-08-18T02:38:40.024Z,12.00
2023-08-18T02:41:06.419Z,11.07
2023-08-18T02:43:32.723Z,11.10
2023-08-18T02:45:59.557Z,9.27
2023-08-18T02:48:27.105Z,9.27
2023-08-18T02:51:02.556Z,9.57
2023-08-18T02:53:28.858Z,10.03
2023-08-18T02:55:55.499Z,10.23
2023-08-18T02:58:23.051Z,9.10
2023-08-18T03:00:49.319Z,9.80
2023-08-18T03:03:15.652Z,11.20
2023-08-18T03:05:41.987Z,11.00
2023-08-18T03:08:08.335Z,11.50
2023-08-18T03:10:34.606Z,11.90
2023-08-18T03:13:04.742Z,11.17
2023-08-18T03:15:31.465Z,10.87
2023-08-18T03:17:57.938Z,10.70
2023-08-18T03:20:24.305Z,10.47
2023-08-18T03:22:50.574Z,12.77
2023-08-18T03:25:17.933Z,14.30
2023-08-18T03:27:44.446Z,11.97
2023-08-18T03:30:12.286Z,13.40
2023-08-18T03:32:38.952Z,11.47
2023-08-18T03:35:05.538Z,9.80
2023-08-18T03:37:32.068Z,12.57
2023-08-18T03:39:58.459Z,12.47
2023-08-18T03:42:24.724Z,9.93
2023-08-18T03:44:51.061Z,12.80
2023-08-18T03:47:17.402Z,13.77
2023-08-18T03:49:43.709Z,12.87
2023-08-18T03:52:10.230Z,11.67
2023-08-18T03:54:37.966Z,9.90
2023-08-18T03:57:04.373Z,11.80
2023-08-18T03:59:30.638Z,10.53
2023-08-18T04:01:56.932Z,9.87
2023-08-18T04:04:23.229Z,11.67
2023-08-18T04:06:49.628Z,10.27
2023-08-18T04:09:16.812Z,10.33
2023-08-18T04:11:44.247Z,12.00
2023-08-18T04:14:11.173Z,10.53
2023-08-18T04:16:37.612Z,13.63
2023-08-18T04:19:04.891Z,13.93
2023-08-18T04:21:31.235Z,10.70
2023-08-18T04:23:57.524Z,11.20
2023-08-18T04:26:25.836Z,15.30
2023-08-18T04:28:53.762Z,11.20
2023-08-18T04:31:20.302Z,11.93
2023-08-18T04:33:46.615Z,12.47
2023-08-18T04:36:12.891Z,13.40
2023-08-18T04:38:39.459Z,14.77
2023-08-18T04:41:05.988Z,13.23
2023-08-18T04:43:32.464Z,17.93
2023-08-18T04:45:59.075Z,12.80
2023-08-18T04:48:25.387Z,10.37
2023-08-18T04:50:51.718Z,14.70
2023-08-18T04:53:18.038Z,14.20
2023-08-18T04:55:44.383Z,13.63
2023-08-18T04:58:13.621Z,11.43
2023-08-18T05:00:40.717Z,12.77
2023-08-18T05:03:07.244Z,17.57
2023-08-18T05:05:39.775Z,11.60
2023-08-18T05:08:06.671Z,12.40
2023-08-18T05:10:32.969Z,11.37
2023-08-18T05:13:00.350Z,11.40
2023-08-18T05:15:28.365Z,12.23
2023-08-18T05:17:54.661Z,12.17
2023-08-18T05:20:21.036Z,12.40
2023-08-18T05:22:47.326Z,12.43
2023-08-18T05:25:14.727Z,12.60
2023-08-18T05:27:41.110Z,16.83
2023-08-18T05:30:08.029Z,12.03
2023-08-18T05:32:34.356Z,12.50
2023-08-18T05:35:00.684Z,11.07
2023-08-18T05:37:27.050Z,14.23
2023-08-18T05:39:54.749Z,12.37
2023-08-18T05:42:21.050Z,11.23
2023-08-18T05:44:47.316Z,14.00
2023-08-18T05:47:13.925Z,12.97
2023-08-18T05:49:40.235Z,13.50
2023-08-18T05:52:06.558Z,13.77
2023-08-18T05:54:33.067Z,13.23
2023-08-18T05:56:59.418Z,12.73
2023-08-18T05:59:25.685Z,12.90
2023-08-18T06:01:52.843Z,14.20
2023-08-18T06:04:19.287Z,12.70
2023-08-18T06:06:45.585Z,13.73
2023-08-18T06:09:11.950Z,13.53
2023-08-18T06:11:38.222Z,11.63
2023-08-18T06:14:04.532Z,10.70
2023-08-18T06:16:30.878Z,15.27
2023-08-18T06:18:57.270Z,13.07
2023-08-18T06:21:23.535Z,13.40
2023-08-18T06:23:49.897Z,10.63
2023-08-18T06:26:16.244Z,13.60
2023-08-18T06:28:42.533Z,9.90
2023-08-18T06:31:08.934Z,10.27
2023-08-18T06:33:35.985Z,12.07
2023-08-18T06:36:02.984Z,16.53
2023-08-18T06:38:29.565Z,9.77
2023-08-18T06:40:55.851Z,13.03
2023-08-18T06:43:22.295Z,13.33
2023-08-18T06:45:48.691Z,10.10
2023-08-18T06:48:15.065Z,10.80
2023-08-18T06:50:42.407Z,8.67
2023-08-18T06:53:08.786Z,10.73
2023-08-18T06:55:38.305Z,12.10
2023-08-18T06:58:09.771Z,10.00
2023-08-18T07:00:36.081Z,9.07
2023-08-18T07:03:03.798Z,11.37
2023-08-18T07:05:30.657Z,10.43
2023-08-18T07:07:57.079Z,10.02
2023-08-18T07:10:23.466Z,12.70
2023-08-18T07:12:49.785Z,10.20
2023-08-18T07:15:16.186Z,9.20
2023-08-18T07:17:42.631Z,9.07
2023-08-18T07:20:11.711Z,8.63
2023-08-18T07:22:38.140Z,8.52
2023-08-18T07:25:05.650Z,7.28
2023-08-18T07:27:32.004Z,6.97
2023-08-18T07:29:58.315Z,8.65
2023-08-18T07:32:24.694Z,6.88
2023-08-18T07:34:51.080Z,6.53
2023-08-18T07:37:19.700Z,6.40
2023-08-18T07:39:57.988Z,5.20
2023-08-18T07:42:24.284Z,5.85
2023-08-18T07:44:50.556Z,5.40
2023-08-18T07:47:16.975Z,6.78
2023-08-18T07:49:43.796Z,7.45
2023-08-18T07:52:11.201Z,5.68
2023-08-18T07:54:37.547Z,5.07
2023-08-18T07:57:04.391Z,7.25
2023-08-18T07:59:30.711Z,7.93
2023-08-18T08:01:57.098Z,5.75
2023-08-18T08:04:23.398Z,7.47
2023-08-18T08:06:51.017Z,7.15
2023-08-18T08:09:17.282Z,6.25
2023-08-18T08:11:43.589Z,10.90
2023-08-18T08:14:09.875Z,6.40
2023-08-18T08:16:36.910Z,7.05
2023-08-18T08:19:05.627Z,6.63
2023-08-18T08:21:36.765Z,6.38
2023-08-18T08:24:05.121Z,5.90
2023-08-18T08:26:31.403Z,5.65
2023-08-18T08:29:00.632Z,34.85
2023-08-18T08:31:27.297Z,44.60
2023-08-18T08:33:53.602Z,8.63
2023-08-18T08:36:19.883Z,10.73
2023-08-18T08:38:46.299Z,12.10
2023-08-18T08:41:12.580Z,5.95
2023-08-18T08:43:38.873Z,9.23
2023-08-18T08:46:05.242Z,9.57
2023-08-18T08:48:35.662Z,5.47
2023-08-18T08:51:06.660Z,6.18
2023-08-18T08:53:36.925Z,6.47
2023-08-18T08:56:09.166Z,7.72
2023-08-18T08:58:35.691Z,5.40
2023-08-18T09:01:05.299Z,7.20
2023-08-18T09:03:31.711Z,7.85
2023-08-18T09:05:58.641Z,5.63
2023-08-18T09:08:25.822Z,8.23
2023-08-18T09:10:52.474Z,7.18
2023-08-18T09:13:18.854Z,7.10
2023-08-18T09:15:45.766Z,5.32
2023-08-18T09:18:13.097Z,6.20
2023-08-18T09:20:39.455Z,8.70
2023-08-18T09:23:05.816Z,7.07
2023-08-18T09:25:34.396Z,6.65
2023-08-18T09:28:05.051Z,5.93
2023-08-18T09:30:33.262Z,6.00
2023-08-18T09:33:03.341Z,6.57
2023-08-18T09:35:36.176Z,6.22
2023-08-18T09:38:02.967Z,11.52
2023-08-18T09:40:29.615Z,4.90
2023-08-18T09:42:56.610Z,7.50
2023-08-18T09:45:24.440Z,4.43
2023-08-18T09:47:55.960Z,4.75
2023-08-18T09:50:26.015Z,5.18
2023-08-18T09:52:53.946Z,4.30
2023-08-18T09:55:22.005Z,6.50
2023-08-18T09:57:56.324Z,4.47
2023-08-18T10:00:23.677Z,4.90
2023-08-18T10:02:50.724Z,4.13
2023-08-18T10:05:17.205Z,4.15
2023-08-18T10:07:43.776Z,7.45
2023-08-18T10:10:10.058Z,5.15
2023-08-18T10:12:36.381Z,6.97
2023-08-18T10:15:02.858Z,6.82
2023-08-18T10:17:29.184Z,4.05
2023-08-18T10:19:56.407Z,4.40
2023-08-18T10:22:23.730Z,5.47
2023-08-18T10:24:50.302Z,5.18
2023-08-18T10:27:28.749Z,4.80
2023-08-18T10:30:02.771Z,5.65
2023-08-18T10:32:31.018Z,5.85
2023-08-18T10:35:16.269Z,5.78
2023-08-18T10:37:43.838Z,4.85
2023-08-18T10:40:11.195Z,4.97
2023-08-18T10:42:38.950Z,4.80
2023-08-18T10:45:22.639Z,4.97
2023-08-18T10:47:48.990Z,4.93
2023-08-18T10:50:15.679Z,7.00
2023-08-18T10:52:42.592Z,4.50
2023-08-18T10:55:08.981Z,4.47
2023-08-18T10:57:35.261Z,7.90
2023-08-18T11:00:01.690Z,5.82
2023-08-18T11:02:29.240Z,5.55
2023-08-18T11:04:56.047Z,5.25
2023-08-18T11:07:22.738Z,8.00
2023-08-18T11:09:49.015Z,6.35
2023-08-18T11:12:16.210Z,6.43
2023-08-18T11:14:42.476Z,5.80
2023-08-18T11:17:08.752Z,6.80
2023-08-18T11:19:35.024Z,4.60
2023-08-18T11:22:01.613Z,4.63
2023-08-18T11:24:27.911Z,7.03
2023-08-18T11:26:54.706Z,6.82
2023-08-18T11:29:21.061Z,5.05
2023-08-18T11:31:47.772Z,5.28
2023-08-18T11:34:14.486Z,6.07
2023-08-18T11:36:41.466Z,5.28
2023-08-18T11:39:08.608Z,7.07
2023-08-18T11:41:42.825Z,5.25
2023-08-18T11:44:10.048Z,5.28
2023-08-18T11:46:37.103Z,9.35
2023-08-18T11:49:04.631Z,5.03
2023-08-18T11:57:17.771Z,5.22
2023-08-18T11:59:45.664Z,5.35
2023-08-18T12:02:11.917Z,7.40
2023-08-18T12:04:42.215Z,7.50
2023-08-18T12:07:08.497Z,6.43
2023-08-18T12:09:34.757Z,6.10
2023-08-18T12:12:03.513Z,7.05
2023-08-18T12:14:29.776Z,7.78
2023-08-18T12:16:56.060Z,5.00
2023-08-18T12:19:22.573Z,6.13
2023-08-18T12:21:49.189Z,5.80
2023-08-18T12:24:15.471Z,6.45
2023-08-18T12:26:42.693Z,6.00
2023-08-18T12:29:08.975Z,5.32
2023-08-18T12:31:37.382Z,5.28
2023-08-18T12:34:06.940Z,5.35
2023-08-18T12:36:34.448Z,6.15
2023-08-18T12:39:00.772Z,6.85
2023-08-18T12:41:28.272Z,7.57
2023-08-18T12:43:54.878Z,5.80
2023-08-18T12:46:21.212Z,5.97
2023-08-18T12:48:47.529Z,6.13
2023-08-18T12:51:18.993Z,5.72
2023-08-18T12:53:46.112Z,7.50
2023-08-18T12:56:12.424Z,6.32
2023-08-18T12:58:38.750Z,7.35
2023-08-18T13:01:07.461Z,7.38
2023-08-18T13:03:33.942Z,6.82
2023-08-18T13:06:00.305Z,8.02
2023-08-18T13:08:26.617Z,5.95
2023-08-18T13:10:53.322Z,8.18
2023-08-18T13:13:21.326Z,6.63
2023-08-18T13:15:47.851Z,7.82
2023-08-18T13:18:14.194Z,7.30
2023-08-18T13:20:40.538Z,6.95
2023-08-18T13:23:08.638Z,6.63
2023-08-18T13:25:35.875Z,6.18
2023-08-18T13:28:02.233Z,6.40
2023-08-18T13:30:30.459Z,6.88
2023-08-18T13:32:56.989Z,8.18
2023-08-18T13:35:23.271Z,8.70
2023-08-18T13:37:49.670Z,6.88
2023-08-18T13:40:16.062Z,6.05
2023-08-18T13:42:42.330Z,5.72
2023-08-18T13:45:08.962Z,6.63
2023-08-18T13:47:35.291Z,6.70
2023-08-18T13:50:01.766Z,7.47
2023-08-18T13:52:28.313Z,6.18
2023-08-18T13:54:54.749Z,6.22
2023-08-18T13:57:22.689Z,5.80
2023-08-18T13:59:48.989Z,7.13
2023-08-18T14:02:15.289Z,5.95
2023-08-18T14:04:41.719Z,6.03
2023-08-18T14:07:08.101Z,6.30
2023-08-18T14:09:34.380Z,6.97
2023-08-18T14:12:02.267Z,9.02
2023-08-18T14:14:29.385Z,6.65
2023-08-18T14:16:55.964Z,6.07
2023-08-18T14:19:22.539Z,7.35
2023-08-18T14:21:48.979Z,6.70
2023-08-18T14:24:15.414Z,9.45
2023-08-18T14:26:41.728Z,6.10
2023-08-18T14:29:08.261Z,6.05
2023-08-18T14:31:34.635Z,6.00
2023-08-18T14:34:00.962Z,7.80
2023-08-18T14:36:27.279Z,6.05
2023-08-18T14:38:53.720Z,7.32
2023-08-18T14:41:20.017Z,8.25
2023-08-18T14:43:46.336Z,8.70
2023-08-18T14:46:12.757Z,9.50
2023-08-18T14:48:39.496Z,7.07
2023-08-18T14:51:06.059Z,6.80
2023-08-18T14:53:32.587Z,6.57
2023-08-18T14:55:59.198Z,6.80
2023-08-18T14:58:26.273Z,6.18
2023-08-18T15:00:52.876Z,7.25
2023-08-18T15:03:19.358Z,6.68
2023-08-18T15:05:45.688Z,7.13
2023-08-18T15:08:12.349Z,6.78
2023-08-18T15:10:40.080Z,5.80
2023-08-18T15:13:06.452Z,7.00
2023-08-18T15:15:32.757Z,6.32
2023-08-18T15:17:59.161Z,8.65
2023-08-18T15:20:25.554Z,7.15
2023-08-18T15:22:51.871Z,8.05
2023-08-18T15:25:18.178Z,6.43
2023-08-18T15:27:46.348Z,6.35
2023-08-18T15:30:13.817Z,6.00
2023-08-18T15:32:40.265Z,5.97
2023-08-18T15:35:06.872Z,7.05
2023-08-18T15:37:33.687Z,7.55
2023-08-18T15:40:00.240Z,8.88
2023-08-18T15:42:26.887Z,6.35
2023-08-18T15:44:54.155Z,6.57
2023-08-18T15:47:20.747Z,8.43
2023-08-18T15:49:48.319Z,8.02
2023-08-18T15:52:14.617Z,6.68
2023-08-18T15:54:41.160Z,7.22
2023-08-18T15:57:07.499Z,7.15
2023-08-18T15:59:34.104Z,6.43
2023-08-18T16:02:00.438Z,8.63
2023-08-18T16:04:26.767Z,9.55
2023-08-18T16:06:53.222Z,6.38
2023-08-18T16:09:19.521Z,8.60
2023-08-18T16:11:45.879Z,6.57
2023-08-18T16:14:39.215Z,7.40
2023-08-18T16:16:59.092Z,6.05
2023-08-18T16:19:25.437Z,6.65
2023-08-18T16:21:51.777Z,7.90
2023-08-18T16:24:18.074Z,8.98
2023-08-18T16:26:44.379Z,7.00
2023-08-18T16:29:10.708Z,7.10
2023-08-18T16:31:37.837Z,7.50
2023-08-18T16:34:04.222Z,10.07
2023-08-18T16:36:32.121Z,7.68
2023-08-18T16:38:59.583Z,7.93
2023-08-18T16:41:26.040Z,7.85
2023-08-18T16:43:52.360Z,7.82
2023-08-18T16:46:19.862Z,11.20
2023-08-18T16:48:46.221Z,8.48
2023-08-18T16:51:12.498Z,8.07
2023-08-18T16:53:38.813Z,6.95
2023-08-18T16:56:05.140Z,8.75
2023-08-18T16:58:31.469Z,7.53
2023-08-18T17:00:57.934Z,7.25
2023-08-18T17:03:24.330Z,6.38
2023-08-18T17:05:50.779Z,7.30
2023-08-18T17:08:17.206Z,7.07
2023-08-18T17:10:43.502Z,7.15
2023-08-18T17:13:12.031Z,8.35
2023-08-18T17:15:38.358Z,8.30
2023-08-18T17:18:05.108Z,6.90
2023-08-18T17:20:31.475Z,8.27
2023-08-18T17:22:57.781Z,7.45
2023-08-18T17:25:24.092Z,8.88
2023-08-18T17:27:50.397Z,7.63
2023-08-18T17:30:16.753Z,9.52
2023-08-18T17:32:43.080Z,10.07
2023-08-18T17:35:09.583Z,12.55
2023-08-18T17:37:35.868Z,10.13
2023-08-18T17:40:02.157Z,8.32
2023-08-18T17:42:28.605Z,12.35
2023-08-18T17:44:54.969Z,8.55
2023-08-18T17:47:21.343Z,8.63
2023-08-18T17:49:47.698Z,10.10
2023-08-18T17:52:16.019Z,8.75
2023-08-18T17:54:43.233Z,9.80
2023-08-18T17:57:10.764Z,9.20
2023-08-18T17:59:37.148Z,9.63
2023-08-18T18:02:04.005Z,9.05
2023-08-18T18:04:30.334Z,8.98
2023-08-18T18:06:56.652Z,9.27
2023-08-18T18:09:23.200Z,11.48
2023-08-18T18:11:49.565Z,11.52
2023-08-18T18:14:16.787Z,9.55
2023-08-18T18:16:43.153Z,11.63
2023-08-18T18:19:09.492Z,9.38
2023-08-18T18:21:35.801Z,11.18
2023-08-18T18:24:02.088Z,9.93
2023-08-18T18:26:31.439Z,10.25
2023-08-18T18:32:25.896Z,9.90
2023-08-18T18:34:52.636Z,11.85
2023-08-18T18:37:19.039Z,9.20
2023-08-18T18:39:46.148Z,10.20
2023-08-18T18:42:12.644Z,9.80
2023-08-18T18:44:38.943Z,10.88
2023-08-18T18:47:05.307Z,9.60
2023-08-18T18:49:31.603Z,10.93
2023-08-18T18:51:57.879Z,9.85
2023-08-18T18:54:24.861Z,11.35
2023-08-18T18:56:51.137Z,11.45
2023-08-18T18:59:17.489Z,13.20
2023-08-18T19:01:43.752Z,10.60
2023-08-18T19:04:10.023Z,9.65
2023-08-18T19:06:36.284Z,10.60
2023-08-18T19:09:03.438Z,10.70
2023-08-18T19:11:29.815Z,10.30
2023-08-18T19:13:56.111Z,11.23
2023-08-18T19:16:22.857Z,10.10
2023-08-18T19:18:49.220Z,10.00
2023-08-18T19:21:15.485Z,10.57
2023-08-18T19:23:41.819Z,11.65
2023-08-18T19:26:08.125Z,12.18
2023-08-18T19:28:37.110Z,12.35
2023-08-18T19:31:07.701Z,9.43
2023-08-18T19:33:34.201Z,9.27
2023-08-18T19:36:00.873Z,9.80
2023-08-18T19:38:28.013Z,15.57
2023-08-18T19:40:54.904Z,9.90
2023-08-18T19:43:21.530Z,10.37
2023-08-18T19:45:47.931Z,9.02
2023-08-18T19:48:14.279Z,10.00
2023-08-18T19:50:40.602Z,11.98
2023-08-18T19:53:07.256Z,9.70
2023-08-18T19:55:33.542Z,10.68
2023-08-18T19:58:02.114Z,11.95
2023-08-18T20:00:28.985Z,9.68
2023-08-18T20:02:56.033Z,8.77
2023-08-18T20:05:22.466Z,10.40
2023-08-18T20:07:49.080Z,10.02
2023-08-18T20:10:16.339Z,10.70
2023-08-18T20:12:42.626Z,8.37
2023-08-18T20:15:10.106Z,10.48
2023-08-18T20:17:37.206Z,11.67
2023-08-18T20:20:04.704Z,9.07
2023-08-18T20:22:31.229Z,8.67
2023-08-18T20:24:57.783Z,9.90
2023-08-18T20:27:24.235Z,10.53
2023-08-18T20:29:50.522Z,10.83
2023-08-18T20:32:16.821Z,8.30
2023-08-18T20:34:43.077Z,9.57
2023-08-18T20:37:09.391Z,9.57
2023-08-18T20:39:36.098Z,10.27
2023-08-18T20:42:03.910Z,11.33
2023-08-18T20:44:30.459Z,12.90
2023-08-18T20:46:56.731Z,12.77
2023-08-18T20:49:23.046Z,11.07
2023-08-18T20:51:49.686Z,12.10
2023-08-18T20:54:15.951Z,16.27
2023-08-18T20:56:42.240Z,9.43
2023-08-18T20:59:08.516Z,13.60
2023-08-18T21:01:34.949Z,11.40
2023-08-18T21:04:01.375Z,10.73
2023-08-18T21:06:27.831Z,13.17
2023-08-18T21:08:54.143Z,11.97
2023-08-18T21:11:20.449Z,11.43
2023-08-18T21:13:46.713Z,9.70
2023-08-18T21:16:16.953Z,10.20
2023-08-18T21:18:43.629Z,9.70
2023-08-18T21:21:09.926Z,9.23
2023-08-18T21:23:39.031Z,16.03
2023-08-18T21:26:07.313Z,11.40
2023-08-18T21:28:33.593Z,10.10
2023-08-18T21:31:00.617Z,9.53
2023-08-18T21:33:27.225Z,10.57
2023-08-18T21:35:53.591Z,10.77
2023-08-18T21:38:20.634Z,11.83
2023-08-18T21:40:50.820Z,12.03
2023-08-18T21:43:17.099Z,10.97
2023-08-18T21:45:43.387Z,11.27
2023-08-18T21:48:09.731Z,9.83
2023-08-18T21:50:39.358Z,9.83
2023-08-18T21:53:05.978Z,11.10
2023-08-18T21:55:32.737Z,14.40
2023-08-18T21:58:00.420Z,9.73
2023-08-18T22:00:26.774Z,14.97
2023-08-18T22:02:53.098Z,10.37
2023-08-18T22:05:20.198Z,12.93
2023-08-18T22:07:46.894Z,10.77
2023-08-18T22:10:14.036Z,13.30
2023-08-18T22:12:40.862Z,10.10
2023-08-18T22:15:07.985Z,11.20
2023-08-18T22:17:34.819Z,13.00
2023-08-18T22:20:01.124Z,14.77
2023-08-18T22:22:33.953Z,15.10
2023-08-18T22:25:00.875Z,10.13
2023-08-18T22:27:27.147Z,12.53
2023-08-18T22:29:53.434Z,15.27
2023-08-18T22:32:19.741Z,15.10
2023-08-18T22:34:46.066Z,11.87
2023-08-18T22:37:12.499Z,14.30
2023-08-18T22:39:38.777Z,13.53
2023-08-18T22:42:05.563Z,10.00
2023-08-18T22:44:33.991Z,10.27
2023-08-18T22:47:22.219Z,11.17
2023-08-18T22:49:48.801Z,11.27
2023-08-18T22:52:15.092Z,9.97
2023-08-18T22:54:41.419Z,14.13
2023-08-18T22:57:08.238Z,12.90
2023-08-18T22:59:34.989Z,12.27
2023-08-18T23:02:01.287Z,11.17
2023-08-18T23:04:27.773Z,13.07
2023-08-18T23:06:54.483Z,12.80
2023-08-18T23:09:20.966Z,12.03
2023-08-18T23:11:47.394Z,10.90
2023-08-18T23:14:13.696Z,10.73
2023-08-18T23:16:40.770Z,10.07
2023-08-18T23:19:07.381Z,13.83
2023-08-18T23:21:33.722Z,14.10
2023-08-18T23:24:00.198Z,10.20
2023-08-18T23:26:26.730Z,10.33
2023-08-18T23:28:53.228Z,11.13
2023-08-18T23:31:19.522Z,9.93
2023-08-18T23:33:45.883Z,11.17
2023-08-18T23:36:12.296Z,10.90
2023-08-18T23:38:39.337Z,10.37
2023-08-18T23:41:05.930Z,14.03
2023-08-18T23:43:32.747Z,12.00
2023-08-18T23:46:02.767Z,11.63
2023-08-18T23:48:30.759Z,14.87
2023-08-18T23:50:57.026Z,10.80
2023-08-18T23:53:23.301Z,10.87
2023-08-18T23:55:49.587Z,11.13
2023-08-18T23:58:15.873Z,13.30
